Toddville, Maryland
Current Conditions -  °F | °C
As of 12:32 PM on Thursday 30 Oct 2014 (Local Time) from KCGE Reporting Station
Clear Clear  
Wind Chill: 59°   Ceiling: Unl
Heat Index: 59°   Visibility: 10mi
Dew Point: 37°   Wind: 8mph
Humidity: 45%   Direction: 330°NNW
Pressure: 30.04"   Gusts: NA
Location:  38.3°N, 76.07°W
Report Text: KCGE 301632Z AUTO 33007KT 300V000 10SM CLR 15/03 A3004 RMK AO1
Loading
Personal Weather Stations






























Interactive Weather Map
Tropical Storm Tracking
New forecast layout! Learn more

10-Day Weather Forecast

Advertisements
Track Severe Weather on mobile